Time;durP1;ratioP1;P1;durP2;ratioP2;P2;SDS_P1;SDS_P2;PMS_P1;PMS_P2;Temp;Humidity;BMP_temperature;BMP_pressure;BME280_temperature;BME280_humidity;BME280_pressure;Samples;Min_cycle;Max_cycle;Signal;HPM_P1;HPM_P2
2022/04/28 00:00:08;;;;;;;;;;;12.20;75.50;;;;;;5106866;27;19931;-83
2022/04/28 00:02:34;;;;;;;;;;;12.10;75.60;;;;;;5118231;27;20456;-83
2022/04/28 00:05:01;;;;;;;;;;;12.10;75.70;;;;;;5116702;27;20016;-83
2022/04/28 00:07:28;;;;;;;;;;;12.10;75.80;;;;;;5111444;27;19928;-82
2022/04/28 00:09:54;;;;;;;;;;;12.00;75.90;;;;;;5113651;27;19935;-83
2022/04/28 00:12:21;;;;;;;;;;;12.00;76.00;;;;;;5113550;27;19981;-84
2022/04/28 00:14:49;;;;;;;;;;;12.00;76.20;;;;;;5118614;27;19932;-83
2022/04/28 00:17:16;;;;;;;;;;;11.90;76.20;;;;;;5102512;27;19980;-83
2022/04/28 00:19:42;;;;;;;;;;;11.90;76.40;;;;;;5097421;28;19939;-83
2022/04/28 00:22:09;;;;;;;;;;;11.90;77.20;;;;;;5093677;27;20345;-83
2022/04/28 00:24:36;;;;;;;;;;;11.80;76.50;;;;;;5108524;27;20107;-83
2022/04/28 00:27:02;;;;;;;;;;;11.80;76.50;;;;;;5093413;28;19928;-83
2022/04/28 00:29:29;;;;;;;;;;;11.80;76.60;;;;;;5104592;27;19931;-83
2022/04/28 00:31:57;;;;;;;;;;;11.80;76.60;;;;;;5100709;27;19980;-83
2022/04/28 00:34:24;;;;;;;;;;;11.70;76.70;;;;;;5092580;28;19928;-83
2022/04/28 00:36:50;;;;;;;;;;;11.70;76.80;;;;;;5096418;27;20065;-83
2022/04/28 00:39:17;;;;;;;;;;;11.60;76.80;;;;;;5088368;27;19961;-82
2022/04/28 00:41:44;;;;;;;;;;;11.60;76.90;;;;;;5086623;28;19928;-83
2022/04/28 00:44:11;;;;;;;;;;;11.60;77.00;;;;;;5095671;27;19985;-82
2022/04/28 00:46:38;;;;;;;;;;;11.60;77.90;;;;;;5126619;27;19927;-83
2022/04/28 00:51:50;;;;;;;;;;;11.50;77.30;;;;;;5112327;27;19976;-83
2022/04/28 00:54:17;;;;;;;;;;;11.40;77.30;;;;;;5120181;27;19976;-83
2022/04/28 00:56:43;;;;;;;;;;;11.40;77.40;;;;;;5121516;27;19972;-83
2022/04/28 00:59:11;;;;;;;;;;;11.40;77.60;;;;;;5119092;27;19932;-82
2022/04/28 01:01:38;;;;;;;;;;;11.40;77.70;;;;;;5113177;27;19931;-83
2022/04/28 01:04:06;;;;;;;;;;;11.30;77.70;;;;;;5116937;27;19927;-83
2022/04/28 01:06:33;;;;;;;;;;;11.30;77.90;;;;;;5117040;27;19938;-83
2022/04/28 01:08:59;;;;;;;;;;;11.20;77.80;;;;;;5124651;27;19960;-82
2022/04/28 01:11:26;;;;;;;;;;;11.30;78.00;;;;;;5122339;27;19954;-82
2022/04/28 01:13:53;;;;;;;;;;;11.20;78.10;;;;;;5126920;27;19927;-83
2022/04/28 01:16:20;;;;;;;;;;;11.20;78.10;;;;;;5119592;27;19935;-84
2022/04/28 01:18:46;;;;;;;;;;;11.20;78.20;;;;;;5114968;27;19930;-84
2022/04/28 01:21:14;;;;;;;;;;;11.10;78.10;;;;;;5120172;27;19928;-83
2022/04/28 01:23:41;;;;;;;;;;;11.10;78.30;;;;;;5128208;27;19934;-83
2022/04/28 01:26:07;;;;;;;;;;;11.10;78.50;;;;;;5107617;27;19941;-84
2022/04/28 01:28:34;;;;;;;;;;;11.00;78.50;;;;;;5114482;27;20405;-84
2022/04/28 01:31:01;;;;;;;;;;;11.00;78.60;;;;;;5112538;27;20387;-83
2022/04/28 01:33:27;;;;;;;;;;;11.00;78.60;;;;;;5112101;27;19928;-83
2022/04/28 01:35:54;;;;;;;;;;;10.90;78.70;;;;;;5112367;27;19927;-83
2022/04/28 01:38:22;;;;;;;;;;;10.90;78.70;;;;;;5114804;27;20296;-83
2022/04/28 01:40:48;;;;;;;;;;;10.90;78.80;;;;;;5109439;27;21091;-84
2022/04/28 01:43:15;;;;;;;;;;;10.90;78.80;;;;;;5116251;27;20507;-83
2022/04/28 01:45:41;;;;;;;;;;;10.80;78.80;;;;;;5120962;27;20012;-83
2022/04/28 01:48:08;;;;;;;;;;;10.80;78.90;;;;;;5112490;27;19973;-83
2022/04/28 01:50:34;;;;;;;;;;;10.80;79.10;;;;;;5115587;27;19938;-83
2022/04/28 01:55:46;;;;;;;;;;;10.70;79.20;;;;;;5107253;27;19931;-83
2022/04/28 01:58:13;;;;;;;;;;;10.70;79.10;;;;;;5111384;27;19935;-83
2022/04/28 02:00:39;;;;;;;;;;;10.70;79.30;;;;;;5117546;27;19931;-83
2022/04/28 02:03:06;;;;;;;;;;;10.70;79.30;;;;;;5113721;27;20001;-83
2022/04/28 02:05:33;;;;;;;;;;;10.60;79.30;;;;;;5111563;27;20608;-83
2022/04/28 02:08:01;;;;;;;;;;;10.60;79.40;;;;;;5114174;27;19931;-82
2022/04/28 02:10:27;;;;;;;;;;;11.00;79.70;;;;;;5118439;27;19924;-82
2022/04/28 02:12:55;;;;;;;;;;;10.60;79.50;;;;;;5108870;27;19984;-83
2022/04/28 02:15:22;;;;;;;;;;;10.50;79.60;;;;;;5115943;27;20018;-83
2022/04/28 02:17:49;;;;;;;;;;;10.50;79.70;;;;;;5108109;27;20645;-83
2022/04/28 02:20:15;;;;;;;;;;;10.50;79.70;;;;;;5108266;27;19931;-83
2022/04/28 02:22:42;;;;;;;;;;;10.50;79.70;;;;;;5108766;27;19984;-82
2022/04/28 02:25:08;;;;;;;;;;;10.40;79.70;;;;;;5123113;27;19927;-83
2022/04/28 02:27:35;;;;;;;;;;;10.40;79.80;;;;;;5114744;27;19931;-82
2022/04/28 02:30:03;;;;;;;;;;;10.40;79.80;;;;;;5126425;27;20419;-83
2022/04/28 02:33:08;;;;;;;;;;;10.30;79.80;;;;;;5116099;27;21061;-83
2022/04/28 02:35:16;;;;;;;;;;;10.30;79.80;;;;;;5108977;27;19928;-83
2022/04/28 02:37:43;;;;;;;;;;;10.30;79.80;;;;;;5110896;27;19938;-82
2022/04/28 02:40:10;;;;;;;;;;;10.30;80.00;;;;;;5110075;27;19928;-83
2022/04/28 02:42:36;;;;;;;;;;;10.20;80.00;;;;;;5117902;28;19932;-83
2022/04/28 02:45:05;;;;;;;;;;;10.20;80.00;;;;;;5125172;27;19935;-83
2022/04/28 02:47:31;;;;;;;;;;;10.20;80.00;;;;;;5096407;28;19939;-82
2022/04/28 02:49:58;;;;;;;;;;;10.20;80.10;;;;;;5087287;28;19957;-83
2022/04/28 02:52:25;;;;;;;;;;;10.10;80.80;;;;;;5086954;28;20399;-82
2022/04/28 02:54:51;;;;;;;;;;;10.10;80.10;;;;;;5087876;28;20028;-82
2022/04/28 02:57:18;;;;;;;;;;;10.10;80.20;;;;;;5093195;28;19928;-83
2022/04/28 02:59:44;;;;;;;;;;;10.10;80.30;;;;;;5093933;28;20338;-82
2022/04/28 03:02:12;;;;;;;;;;;10.10;80.40;;;;;;5102681;28;19928;-83
2022/04/28 03:04:39;;;;;;;;;;;10.10;80.40;;;;;;5111207;28;19928;-83
2022/04/28 03:12:35;;;;;;;;;;;10.00;80.60;;;;;;5103508;28;20422;-82
2022/04/28 03:15:04;;;;;;;;;;;9.90;80.60;;;;;;5119991;27;19928;-82
2022/04/28 03:17:32;;;;;;;;;;;9.90;80.70;;;;;;5085924;28;20009;-82
2022/04/28 03:19:58;;;;;;;;;;;9.90;80.70;;;;;;5084443;28;19927;-82
2022/04/28 03:22:25;;;;;;;;;;;9.90;80.70;;;;;;5092062;28;20599;-83
2022/04/28 03:24:51;;;;;;;;;;;9.80;81.40;;;;;;5102998;27;19928;-82
2022/04/28 03:27:18;;;;;;;;;;;9.80;80.70;;;;;;5104226;27;19931;-82
2022/04/28 03:29:44;;;;;;;;;;;9.80;80.80;;;;;;5095433;27;20343;-82
2022/04/28 03:32:11;;;;;;;;;;;9.80;80.80;;;;;;5115680;27;20713;-82
2022/04/28 03:34:39;;;;;;;;;;;9.70;80.80;;;;;;5117890;27;19927;-82
2022/04/28 03:37:05;;;;;;;;;;;9.70;80.90;;;;;;5115137;27;19988;-82
2022/04/28 03:39:32;;;;;;;;;;;9.70;81.70;;;;;;5118844;27;19938;-82
2022/04/28 03:41:58;;;;;;;;;;;9.70;81.00;;;;;;5119114;27;19927;-82
2022/04/28 03:44:25;;;;;;;;;;;9.60;81.00;;;;;;5116403;27;19927;-83
2022/04/28 03:46:51;;;;;;;;;;;9.60;81.00;;;;;;5124620;27;19988;-82
2022/04/28 03:49:18;;;;;;;;;;;9.60;81.20;;;;;;5106058;27;20392;-83
2022/04/28 03:51:47;;;;;;;;;;;9.60;81.20;;;;;;5116549;27;19972;-82
2022/04/28 03:54:13;;;;;;;;;;;9.50;81.20;;;;;;5115631;27;19932;-83
2022/04/28 03:56:40;;;;;;;;;;;9.50;81.20;;;;;;5119577;27;20000;-82
2022/04/28 03:59:06;;;;;;;;;;;9.50;81.30;;;;;;5114306;27;19980;-83
2022/04/28 04:01:33;;;;;;;;;;;9.50;81.40;;;;;;5114428;27;20380;-83
2022/04/28 04:04:00;;;;;;;;;;;9.50;81.40;;;;;;5094916;28;19967;-83
2022/04/28 04:06:27;;;;;;;;;;;9.50;81.50;;;;;;5096827;28;20021;-82
2022/04/28 04:08:55;;;;;;;;;;;9.50;81.60;;;;;;5104204;27;20526;-83
2022/04/28 04:11:22;;;;;;;;;;;9.40;81.50;;;;;;5102370;27;20416;-82
2022/04/28 04:13:48;;;;;;;;;;;9.40;81.60;;;;;;5099509;27;19928;-82
2022/04/28 04:16:15;;;;;;;;;;;9.30;81.50;;;;;;5101261;27;19936;-83
2022/04/28 04:18:41;;;;;;;;;;;9.30;81.60;;;;;;5100001;28;20456;-82
2022/04/28 04:21:08;;;;;;;;;;;9.30;81.60;;;;;;5099944;28;19927;-82
2022/04/28 04:23:34;;;;;;;;;;;9.30;81.70;;;;;;5099077;27;19927;-82
2022/04/28 04:26:02;;;;;;;;;;;9.30;81.80;;;;;;5110487;27;19936;-82
2022/04/28 04:28:29;;;;;;;;;;;9.30;81.90;;;;;;5103455;27;19984;-82
2022/04/28 04:33:40;;;;;;;;;;;9.20;81.90;;;;;;5091961;28;19935;-83
2022/04/28 04:36:06;;;;;;;;;;;9.20;82.10;;;;;;5087701;28;19950;-82
2022/04/28 04:38:33;;;;;;;;;;;9.20;82.10;;;;;;5101770;27;19939;-83
2022/04/28 04:40:59;;;;;;;;;;;9.20;82.10;;;;;;5102529;27;19957;-82
2022/04/28 04:43:27;;;;;;;;;;;9.20;82.20;;;;;;5085699;28;19980;-82
2022/04/28 04:45:54;;;;;;;;;;;9.10;82.20;;;;;;5112606;27;19927;-82
2022/04/28 04:48:21;;;;;;;;;;;9.10;82.20;;;;;;5111652;27;20019;-83
2022/04/28 04:50:48;;;;;;;;;;;9.10;82.30;;;;;;5105727;27;19927;-82
2022/04/28 04:53:15;;;;;;;;;;;9.10;82.30;;;;;;5115776;27;19980;-82
2022/04/28 04:55:42;;;;;;;;;;;9.10;82.40;;;;;;5123605;27;19980;-82
2022/04/28 04:58:08;;;;;;;;;;;9.10;82.40;;;;;;5122131;27;19934;-82
2022/04/28 05:00:36;;;;;;;;;;;9.00;82.50;;;;;;5127910;27;19927;-82
2022/04/28 05:03:03;;;;;;;;;;;9.00;82.50;;;;;;5110848;27;19948;-83
2022/04/28 05:05:29;;;;;;;;;;;9.00;82.60;;;;;;5118699;27;19927;-82
2022/04/28 05:07:57;;;;;;;;;;;9.00;82.70;;;;;;5106741;27;19980;-82
2022/04/28 05:10:23;;;;;;;;;;;9.00;82.80;;;;;;5109961;27;20488;-83
2022/04/28 05:12:50;;;;;;;;;;;9.00;82.80;;;;;;5112449;27;19981;-82
2022/04/28 05:15:16;;;;;;;;;;;8.90;82.80;;;;;;5129498;27;19971;-80
2022/04/28 05:17:44;;;;;;;;;;;8.90;82.90;;;;;;5114482;27;19932;-80
2022/04/28 05:20:13;;;;;;;;;;;8.90;83.00;;;;;;5108302;27;20401;-80
2022/04/28 05:22:39;;;;;;;;;;;8.90;83.00;;;;;;5130241;27;19935;-79
2022/04/28 05:25:06;;;;;;;;;;;8.90;83.10;;;;;;5128638;27;19928;-80
2022/04/28 05:27:33;;;;;;;;;;;8.90;83.10;;;;;;5110051;27;19932;-80
2022/04/28 05:29:59;;;;;;;;;;;8.90;83.20;;;;;;5120585;27;19981;-79
2022/04/28 05:32:26;;;;;;;;;;;8.80;83.20;;;;;;5111552;27;19936;-80
2022/04/28 05:34:54;;;;;;;;;;;8.80;83.30;;;;;;5111858;27;20338;-78
2022/04/28 05:37:21;;;;;;;;;;;8.80;83.40;;;;;;5120082;27;19938;-81
2022/04/28 05:39:47;;;;;;;;;;;8.80;83.50;;;;;;5113462;27;19939;-79
2022/04/28 05:42:14;;;;;;;;;;;8.80;83.60;;;;;;5110566;27;19931;-80
2022/04/28 05:47:25;;;;;;;;;;;8.80;83.70;;;;;;5120855;27;19930;-79
2022/04/28 05:49:52;;;;;;;;;;;8.80;83.80;;;;;;5103377;28;20638;-79
2022/04/28 05:52:20;;;;;;;;;;;8.80;83.90;;;;;;5116629;27;20357;-79
2022/04/28 05:54:46;;;;;;;;;;;8.80;83.90;;;;;;5118854;27;20597;-80
2022/04/28 05:57:13;;;;;;;;;;;8.80;84.00;;;;;;5119655;27;19948;-79
2022/04/28 05:59:39;;;;;;;;;;;8.80;84.10;;;;;;5117306;27;19931;-79
2022/04/28 06:02:07;;;;;;;;;;;8.80;84.20;;;;;;5125632;27;19927;-78
2022/04/28 06:04:33;;;;;;;;;;;8.70;84.20;;;;;;5119439;27;19947;-80
2022/04/28 06:07:00;;;;;;;;;;;8.70;84.30;;;;;;5112595;27;20246;-81
2022/04/28 06:09:28;;;;;;;;;;;8.80;84.40;;;;;;5110290;27;22169;-79
2022/04/28 06:11:54;;;;;;;;;;;8.80;84.40;;;;;;5129240;27;20399;-80
2022/04/28 06:14:21;;;;;;;;;;;8.70;84.40;;;;;;5134357;27;19927;-80
2022/04/28 06:16:47;;;;;;;;;;;8.70;84.50;;;;;;5112354;27;19927;-80
2022/04/28 06:19:14;;;;;;;;;;;8.70;84.60;;;;;;5107306;27;19939;-81
2022/04/28 06:21:40;;;;;;;;;;;8.70;84.60;;;;;;5118230;27;20518;-79
2022/04/28 06:24:07;;;;;;;;;;;8.70;84.70;;;;;;5107243;27;20376;-79
2022/04/28 06:26:35;;;;;;;;;;;8.70;84.80;;;;;;5121796;27;19972;-78
2022/04/28 06:29:01;;;;;;;;;;;8.80;84.90;;;;;;5114076;27;19977;-80
2022/04/28 06:31:28;;;;;;;;;;;8.70;85.00;;;;;;5110844;27;19928;-80
2022/04/28 06:33:55;;;;;;;;;;;8.70;85.00;;;;;;5113535;27;19938;-80
2022/04/28 06:36:21;;;;;;;;;;;8.80;85.20;;;;;;5104795;27;20317;-79
2022/04/28 06:38:48;;;;;;;;;;;8.70;85.10;;;;;;5116599;27;19980;-79
2022/04/28 06:41:14;;;;;;;;;;;8.80;85.20;;;;;;5121173;27;19927;-80
2022/04/28 06:43:42;;;;;;;;;;;8.80;85.20;;;;;;5113311;27;19976;-80
2022/04/28 06:46:15;;;;;;;;;;;8.80;85.20;;;;;;5126909;27;19938;-79
2022/04/28 06:48:41;;;;;;;;;;;8.80;85.20;;;;;;5118666;27;20675;-79
2022/04/28 06:51:08;;;;;;;;;;;8.80;85.30;;;;;;5104795;28;19928;-79
2022/04/28 06:53:34;;;;;;;;;;;8.80;85.40;;;;;;5116518;27;19927;-79
2022/04/28 06:56:01;;;;;;;;;;;8.90;85.50;;;;;;5125754;27;20544;-80
2022/04/28 06:58:27;;;;;;;;;;;8.90;85.50;;;;;;5118639;27;19939;-79
2022/04/28 07:00:55;;;;;;;;;;;8.90;85.50;;;;;;5129593;27;19927;-79
2022/04/28 07:03:22;;;;;;;;;;;8.90;85.50;;;;;;5116479;27;21370;-80
2022/04/28 07:05:48;;;;;;;;;;;8.90;85.60;;;;;;5112632;27;19961;-81
2022/04/28 07:08:15;;;;;;;;;;;8.90;85.60;;;;;;5117214;27;19931;-80
2022/04/28 07:10:41;;;;;;;;;;;9.00;85.80;;;;;;5127491;27;19931;-79
2022/04/28 07:13:08;;;;;;;;;;;9.00;86.00;;;;;;5127713;27;20464;-78
2022/04/28 07:15:35;;;;;;;;;;;9.00;86.10;;;;;;5134108;27;20504;-80
2022/04/28 07:18:03;;;;;;;;;;;9.10;86.20;;;;;;5109776;27;19935;-80
2022/04/28 07:20:31;;;;;;;;;;;9.10;86.30;;;;;;5114757;27;19927;-79
2022/04/28 07:22:59;;;;;;;;;;;9.10;86.30;;;;;;5118431;27;20407;-79
2022/04/28 07:25:26;;;;;;;;;;;9.20;86.60;;;;;;5107856;27;19934;-79
2022/04/28 07:27:52;;;;;;;;;;;9.20;87.50;;;;;;5115770;27;20446;-80
2022/04/28 07:30:20;;;;;;;;;;;9.20;86.60;;;;;;5125423;27;19928;-79
2022/04/28 07:32:47;;;;;;;;;;;9.20;86.60;;;;;;5110266;27;20018;-79
2022/04/28 07:35:15;;;;;;;;;;;9.30;86.60;;;;;;5109010;27;19964;-80
2022/04/28 07:37:41;;;;;;;;;;;9.30;86.60;;;;;;5110846;27;20345;-79
2022/04/28 07:40:08;;;;;;;;;;;9.30;86.60;;;;;;5131184;27;20003;-79
2022/04/28 07:42:35;;;;;;;;;;;9.40;86.50;;;;;;5104807;27;20422;-78
2022/04/28 07:45:01;;;;;;;;;;;9.40;86.50;;;;;;5127489;27;19948;-79
2022/04/28 07:47:28;;;;;;;;;;;9.40;86.60;;;;;;5121633;27;19927;-80
2022/04/28 07:49:55;;;;;;;;;;;9.50;86.70;;;;;;5124124;27;19928;-81
2022/04/28 07:52:23;;;;;;;;;;;9.50;87.00;;;;;;5121164;27;19931;-79
2022/04/28 07:54:49;;;;;;;;;;;9.60;86.50;;;;;;5114393;27;20059;-79
2022/04/28 07:57:17;;;;;;;;;;;9.60;86.30;;;;;;5116155;27;19985;-80
2022/04/28 07:59:44;;;;;;;;;;;9.60;86.10;;;;;;5123210;27;20009;-80
2022/04/28 08:02:11;;;;;;;;;;;9.70;86.10;;;;;;5115326;27;19957;-81
2022/04/28 08:04:38;;;;;;;;;;;9.70;85.90;;;;;;5111727;27;19969;-79
2022/04/28 08:07:04;;;;;;;;;;;9.70;85.80;;;;;;5116391;27;19927;-81
2022/04/28 08:09:32;;;;;;;;;;;9.80;86.10;;;;;;5127102;27;19923;-79
2022/04/28 08:11:59;;;;;;;;;;;9.90;86.00;;;;;;5110892;27;20454;-79
2022/04/28 08:14:25;;;;;;;;;;;9.90;85.90;;;;;;5122688;27;20351;-80
2022/04/28 08:16:52;;;;;;;;;;;9.90;85.90;;;;;;5117966;27;19932;-79
2022/04/28 08:19:19;;;;;;;;;;;10.00;85.80;;;;;;5118003;27;20665;-79
2022/04/28 08:21:46;;;;;;;;;;;10.00;85.60;;;;;;5116405;27;20054;-80
2022/04/28 08:24:12;;;;;;;;;;;10.10;85.50;;;;;;5123979;27;19946;-79
2022/04/28 08:26:41;;;;;;;;;;;10.10;85.30;;;;;;5103479;27;20635;-79
2022/04/28 08:29:08;;;;;;;;;;;10.10;85.10;;;;;;5116978;27;19939;-78
2022/04/28 08:31:38;;;;;;;;;;;10.20;85.00;;;;;;5109390;27;19931;-79
2022/04/28 08:34:04;;;;;;;;;;;10.20;84.90;;;;;;5116071;27;19927;-80
2022/04/28 08:36:31;;;;;;;;;;;10.30;84.80;;;;;;5111883;27;19931;-81
2022/04/28 08:38:57;;;;;;;;;;;10.30;84.70;;;;;;5125369;27;20289;-79
2022/04/28 08:41:27;;;;;;;;;;;10.40;84.70;;;;;;5111573;27;19982;-81
2022/04/28 08:43:56;;;;;;;;;;;10.50;84.70;;;;;;5111944;27;19977;-79
2022/04/28 08:49:07;;;;;;;;;;;10.50;84.20;;;;;;5108529;27;19946;-79
2022/04/28 08:51:34;;;;;;;;;;;10.60;83.90;;;;;;5105261;27;19934;-80
2022/04/28 08:54:00;;;;;;;;;;;10.70;83.80;;;;;;5120651;27;19931;-80
2022/04/28 08:56:27;;;;;;;;;;;10.80;83.80;;;;;;5113620;27;20221;-81
2022/04/28 08:58:55;;;;;;;;;;;10.80;83.50;;;;;;5119056;27;20015;-80
2022/04/28 09:01:24;;;;;;;;;;;10.90;83.40;;;;;;5127276;27;19984;-79
2022/04/28 09:03:51;;;;;;;;;;;11.00;83.20;;;;;;5114326;27;20276;-80
2022/04/28 09:06:19;;;;;;;;;;;11.00;83.00;;;;;;5108922;27;19980;-79
2022/04/28 09:08:45;;;;;;;;;;;11.10;82.60;;;;;;5116500;27;19928;-80
2022/04/28 09:11:16;;;;;;;;;;;11.10;82.10;;;;;;5117254;27;19943;-80
2022/04/28 09:16:28;;;;;;;;;;;11.30;81.30;;;;;;5117328;27;19926;-81
2022/04/28 09:18:55;;;;;;;;;;;11.40;80.80;;;;;;5114593;27;19931;-80
2022/04/28 09:21:22;;;;;;;;;;;11.50;80.40;;;;;;5112750;27;19932;-80
2022/04/28 09:23:50;;;;;;;;;;;11.50;80.20;;;;;;5119405;27;19948;-80
2022/04/28 09:26:16;;;;;;;;;;;11.60;79.80;;;;;;5112662;27;19938;-79
2022/04/28 09:28:43;;;;;;;;;;;11.70;79.30;;;;;;5121798;27;19930;-81
2022/04/28 09:31:10;;;;;;;;;;;11.80;78.90;;;;;;5114947;27;20016;-79
2022/04/28 09:33:39;;;;;;;;;;;11.80;78.80;;;;;;5115682;27;19928;-79
2022/04/28 09:36:05;;;;;;;;;;;11.90;78.50;;;;;;5107297;27;19935;-81
2022/04/28 09:38:32;;;;;;;;;;;12.00;78.30;;;;;;5112597;27;19956;-79
2022/04/28 09:43:42;;;;;;;;;;;12.10;77.50;;;;;;5110008;27;19952;-81
2022/04/28 09:46:09;;;;;;;;;;;12.20;77.20;;;;;;5123287;27;19988;-78
2022/04/28 09:48:37;;;;;;;;;;;12.30;76.90;;;;;;5119385;27;19934;-81
2022/04/28 09:51:07;;;;;;;;;;;12.30;76.50;;;;;;5109541;27;20063;-79
2022/04/28 09:53:34;;;;;;;;;;;12.50;76.10;;;;;;5114060;27;20475;-79
2022/04/28 09:56:02;;;;;;;;;;;12.50;75.60;;;;;;5128667;27;19927;-80
2022/04/28 09:58:29;;;;;;;;;;;12.60;75.20;;;;;;5124447;27;20584;-80
2022/04/28 10:01:00;;;;;;;;;;;12.70;74.80;;;;;;5117750;27;19927;-81
2022/04/28 10:03:28;;;;;;;;;;;12.70;74.40;;;;;;5116723;27;19935;-79
2022/04/28 10:05:54;;;;;;;;;;;12.80;74.10;;;;;;5111005;27;19927;-80
2022/04/28 10:08:22;;;;;;;;;;;12.90;73.80;;;;;;5125926;27;19927;-79
2022/04/28 10:10:50;;;;;;;;;;;13.00;73.50;;;;;;5117664;27;19928;-80
2022/04/28 10:13:17;;;;;;;;;;;13.10;73.40;;;;;;5115834;27;19940;-80
2022/04/28 10:15:44;;;;;;;;;;;13.10;73.10;;;;;;5114897;27;19936;-80
2022/04/28 10:18:12;;;;;;;;;;;13.20;72.90;;;;;;5112034;27;19927;-80
2022/04/28 10:20:46;;;;;;;;;;;13.20;72.50;;;;;;5117325;27;19996;-80
2022/04/28 10:23:13;;;;;;;;;;;13.30;71.90;;;;;;5125321;27;20014;-80
2022/04/28 10:34:12;;;;;;;;;;;13.70;70.00;;;;;;5113976;27;20753;-80
2022/04/28 10:36:55;;;;;;;;;;;13.80;69.80;;;;;;5111638;27;20352;-80
2022/04/28 10:39:38;;;;;;;;;;;13.80;68.90;;;;;;5116297;27;19958;-80
2022/04/28 10:42:14;;;;;;;;;;;13.90;68.80;;;;;;5097368;28;21247;-79
2022/04/28 10:44:51;;;;;;;;;;;14.00;68.60;;;;;;5096498;28;19937;-80
2022/04/28 10:47:22;;;;;;;;;;;14.10;68.30;;;;;;5094396;28;19939;-79
2022/04/28 10:49:52;;;;;;;;;;;14.20;67.90;;;;;;5097083;28;19928;-79
2022/04/28 10:52:22;;;;;;;;;;;14.20;67.40;;;;;;5089889;28;20734;-79
2022/04/28 10:54:52;;;;;;;;;;;14.30;67.40;;;;;;5099053;28;20046;-80
2022/04/28 10:57:28;;;;;;;;;;;14.40;67.00;;;;;;5099583;28;19935;-80
2022/04/28 10:59:55;;;;;;;;;;;14.50;66.70;;;;;;5106897;28;19977;-80
2022/04/28 11:02:48;;;;;;;;;;;14.50;66.10;;;;;;5095033;28;20325;-80
2022/04/28 11:05:37;;;;;;;;;;;14.60;65.60;;;;;;5099755;28;19943;-80
2022/04/28 11:08:04;;;;;;;;;;;14.70;65.40;;;;;;5091322;28;20865;-80
2022/04/28 11:10:30;;;;;;;;;;;14.80;65.30;;;;;;5081004;28;19935;-80
2022/04/28 11:13:08;;;;;;;;;;;14.80;64.10;;;;;;5090418;28;19935;-79
2022/04/28 11:15:35;;;;;;;;;;;14.90;64.20;;;;;;5090673;28;20008;-82
2022/04/28 11:18:02;;;;;;;;;;;15.00;64.10;;;;;;5087014;28;19939;-80
2022/04/28 11:20:29;;;;;;;;;;;15.10;63.90;;;;;;5083468;28;19947;-79
2022/04/28 11:22:56;;;;;;;;;;;15.00;63.50;;;;;;5094404;28;19932;-80
2022/04/28 11:25:23;;;;;;;;;;;15.20;63.00;;;;;;5092079;28;20426;-80
2022/04/28 11:27:51;;;;;;;;;;;15.30;63.50;;;;;;5083123;28;20018;-80
2022/04/28 11:30:19;;;;;;;;;;;15.40;63.20;;;;;;5104083;28;19928;-80
2022/04/28 11:32:46;;;;;;;;;;;15.40;62.80;;;;;;5094212;28;19932;-80
2022/04/28 11:35:13;;;;;;;;;;;15.50;62.90;;;;;;5085311;28;19932;-80
2022/04/28 11:37:39;;;;;;;;;;;15.60;62.80;;;;;;5103744;28;19928;-79
2022/04/28 11:40:07;;;;;;;;;;;15.60;61.60;;;;;;5090566;28;20441;-80
2022/04/28 11:42:34;;;;;;;;;;;15.70;61.60;;;;;;5089078;28;19931;-80
2022/04/28 11:45:01;;;;;;;;;;;15.80;61.70;;;;;;5098259;27;19927;-80
2022/04/28 11:47:30;;;;;;;;;;;15.80;61.70;;;;;;5096817;27;19937;-80
2022/04/28 11:49:57;;;;;;;;;;;15.90;61.60;;;;;;5092730;28;19977;-80
2022/04/28 11:52:25;;;;;;;;;;;15.90;61.30;;;;;;5095086;27;19931;-80
2022/04/28 11:54:52;;;;;;;;;;;16.00;61.10;;;;;;5103036;27;20010;-80
2022/04/28 11:57:20;;;;;;;;;;;16.10;60.80;;;;;;5095387;28;20273;-81
2022/04/28 11:59:47;;;;;;;;;;;16.20;60.70;;;;;;5099265;27;20038;-79
2022/04/28 12:02:24;;;;;;;;;;;16.20;60.30;;;;;;5093454;27;19928;-79
2022/04/28 12:04:52;;;;;;;;;;;16.30;60.10;;;;;;5100732;27;20387;-79
2022/04/28 12:07:19;;;;;;;;;;;16.30;60.00;;;;;;5091521;27;20794;-80
2022/04/28 12:15:09;;;;;;;;;;;16.50;59.30;;;;;;5105823;27;19931;-80
2022/04/28 12:20:36;;;;;;;;;;;16.60;59.50;;;;;;5096582;28;19935;-80
2022/04/28 12:23:03;;;;;;;;;;;16.70;59.30;;;;;;5098540;27;19931;-80
2022/04/28 12:25:33;;;;;;;;;;;16.80;58.90;;;;;;5097232;28;20303;-80
2022/04/28 12:28:00;;;;;;;;;;;16.80;58.60;;;;;;5089076;27;19927;-81
2022/04/28 12:30:27;;;;;;;;;;;16.80;58.30;;;;;;5106841;27;20062;-80
2022/04/28 12:32:54;;;;;;;;;;;16.90;58.10;;;;;;5101593;28;20495;-80
2022/04/28 12:35:29;;;;;;;;;;;17.00;57.90;;;;;;5090969;28;20345;-80
2022/04/28 12:37:59;;;;;;;;;;;17.10;58.00;;;;;;5093418;28;20509;-80
2022/04/28 12:40:26;;;;;;;;;;;17.10;57.90;;;;;;5099651;27;20305;-80
2022/04/28 12:42:53;;;;;;;;;;;17.20;58.00;;;;;;5086758;27;19928;-79
2022/04/28 12:45:41;;;;;;;;;;;17.20;58.00;;;;;;5110502;27;20010;-80
2022/04/28 12:48:09;;;;;;;;;;;17.30;57.80;;;;;;5094754;27;20611;-80
2022/04/28 12:50:35;;;;;;;;;;;17.40;57.30;;;;;;5091664;28;19932;-81
2022/04/28 12:53:04;;;;;;;;;;;17.40;57.20;;;;;;5096731;27;19954;-81
2022/04/28 12:55:35;;;;;;;;;;;17.50;57.20;;;;;;5092599;27;20052;-80
2022/04/28 12:58:02;;;;;;;;;;;17.60;57.00;;;;;;5104084;27;19935;-80
2022/04/28 13:00:37;;;;;;;;;;;17.60;56.80;;;;;;5095194;27;19962;-80
2022/04/28 13:03:05;;;;;;;;;;;17.70;57.00;;;;;;5097980;27;19927;-80
2022/04/28 13:05:32;;;;;;;;;;;17.70;56.50;;;;;;5091099;27;19928;-80
2022/04/28 13:07:58;;;;;;;;;;;17.70;55.60;;;;;;5092230;28;19928;-79
2022/04/28 13:10:26;;;;;;;;;;;17.80;55.50;;;;;;5101501;28;19961;-81
2022/04/28 13:12:53;;;;;;;;;;;17.90;55.60;;;;;;5104180;27;19972;-80
2022/04/28 13:15:19;;;;;;;;;;;17.90;55.40;;;;;;5104384;27;19961;-80
2022/04/28 13:17:46;;;;;;;;;;;18.00;55.60;;;;;;5086716;28;19932;-80
2022/04/28 13:20:12;;;;;;;;;;;18.00;55.00;;;;;;5092578;28;20812;-80
2022/04/28 13:22:39;;;;;;;;;;;18.10;54.80;;;;;;5092243;28;20357;-80
2022/04/28 13:25:06;;;;;;;;;;;18.20;54.90;;;;;;5100712;28;20726;-79
2022/04/28 13:27:34;;;;;;;;;;;18.20;54.80;;;;;;5091906;28;19932;-81
2022/04/28 13:30:00;;;;;;;;;;;18.20;54.70;;;;;;5094783;28;19928;-81
2022/04/28 13:32:27;;;;;;;;;;;18.30;54.70;;;;;;5075347;28;20385;-79
2022/04/28 13:34:53;;;;;;;;;;;18.30;53.70;;;;;;5072319;28;20499;-81
2022/04/28 13:37:20;;;;;;;;;;;18.40;53.10;;;;;;5067592;28;19928;-80
2022/04/28 13:39:46;;;;;;;;;;;18.50;53.10;;;;;;5077046;28;19936;-80
2022/04/28 13:42:13;;;;;;;;;;;18.50;53.10;;;;;;5074390;28;19935;-81
2022/04/28 13:44:41;;;;;;;;;;;18.60;53.20;;;;;;5066170;28;19928;-79
2022/04/28 13:47:08;;;;;;;;;;;18.60;53.30;;;;;;5083355;28;19928;-80
2022/04/28 13:49:35;;;;;;;;;;;18.70;52.90;;;;;;5073301;28;20292;-81
2022/04/28 13:52:01;;;;;;;;;;;18.70;52.20;;;;;;5078727;28;19932;-80
2022/04/28 13:54:28;;;;;;;;;;;18.80;52.40;;;;;;5088406;28;19977;-80
2022/04/28 13:56:54;;;;;;;;;;;18.90;53.10;;;;;;5078540;28;19962;-80
2022/04/28 13:59:21;;;;;;;;;;;19.00;53.30;;;;;;5082718;28;20379;-79
2022/04/28 14:01:49;;;;;;;;;;;19.00;52.50;;;;;;5083243;28;19935;-80
2022/04/28 14:04:18;;;;;;;;;;;19.10;52.70;;;;;;5079962;28;20021;-80
2022/04/28 14:06:44;;;;;;;;;;;19.10;52.20;;;;;;5081633;28;19928;-80
2022/04/28 14:09:11;;;;;;;;;;;19.20;52.20;;;;;;5081704;28;19936;-80
2022/04/28 14:11:37;;;;;;;;;;;19.20;52.20;;;;;;5085745;28;19928;-80
2022/04/28 14:14:04;;;;;;;;;;;19.40;52.40;;;;;;5084395;28;19928;-79
2022/04/28 14:16:31;;;;;;;;;;;19.40;52.30;;;;;;5083262;28;20022;-80
2022/04/28 14:18:59;;;;;;;;;;;19.50;51.70;;;;;;5082937;28;19928;-80
2022/04/28 14:21:25;;;;;;;;;;;19.60;51.20;;;;;;5077563;28;19928;-80
2022/04/28 14:23:52;;;;;;;;;;;19.60;60.60;;;;;;5086713;28;19938;-80
2022/04/28 14:26:20;;;;;;;;;;;19.60;51.60;;;;;;5076466;28;19935;-81
2022/04/28 14:28:47;;;;;;;;;;;19.70;50.70;;;;;;5077085;28;20321;-80
2022/04/28 14:31:14;;;;;;;;;;;19.70;50.90;;;;;;5079207;28;19962;-79
2022/04/28 14:33:41;;;;;;;;;;;19.80;51.10;;;;;;5072139;28;20426;-80
2022/04/28 14:36:09;;;;;;;;;;;19.90;51.20;;;;;;5077547;28;20342;-80
2022/04/28 14:38:36;;;;;;;;;;;20.00;50.60;;;;;;5083549;28;19927;-81
2022/04/28 14:41:03;;;;;;;;;;;20.00;50.10;;;;;;5071625;28;19936;-81
2022/04/28 14:43:29;;;;;;;;;;;20.10;49.80;;;;;;5068314;28;20005;-80
2022/04/28 14:45:56;;;;;;;;;;;20.10;49.90;;;;;;5092953;28;19943;-79
2022/04/28 14:48:23;;;;;;;;;;;20.20;50.00;;;;;;5102206;28;19931;-80
2022/04/28 14:53:31;;;;;;;;;;;20.30;50.10;;;;;;5064791;28;20397;-81
2022/04/28 14:55:58;;;;;;;;;;;20.30;49.30;;;;;;5105055;28;19931;-80
2022/04/28 14:58:24;;;;;;;;;;;20.40;49.40;;;;;;5101829;28;19931;-80
2022/04/28 15:00:51;;;;;;;;;;;20.50;49.40;;;;;;5094933;28;19928;-81
2022/04/28 15:03:18;;;;;;;;;;;20.50;48.90;;;;;;5090222;28;19934;-81
2022/04/28 15:05:45;;;;;;;;;;;20.60;48.90;;;;;;5089325;28;20041;-81